VTUOVTUQ

Guest
Details From VTUO - Burirum
To VTUQ - Nakhon Ratchasima
Flight Number -
Tags decoded
Created
Modified
Stats Distance 59 nm / 110 km
Max Altitude 0 ft / 0 m
Waypoints 3
Social Downloads 0
Likes 0
Share VATSIM

Download

Looking for another format? Having issues loading an existing format? Contact us
Advertisement - Login to hide

Notes

Requested: VTUO W38 RAMEI IF VTUQ

Route

VTUO RAMEI VTUQ

ID Type Via Altitude Latitude Longitude Leg Dist Tot Dist Heading (true) Name
O VTUO APT - 0 ft / 0 m 15.22954˚ 103.25323˚ - 0 nm - Burirum
RAMEI FIX - 0 ft / 0 m 15.01766˚ 102.99464˚ 19 nm 19 nm 230° / 230° -
O VTUQ APT - 0 ft / 0 m 14.94950˚ 102.31274˚ 39 nm 59 nm 264° / 264° Nakhon Ratchasima

Altitude Profile

Advertisement - Login to hide

VTUO

Details ICAO VTUO (BFV)
Name Burirum
Region Thailand
Timezone Asia/Bangkok (UTC+7.0)
Stats Elevation 590 ft / 180 m (AMSL)
Location 15.229537° 103.253231°
Runways 1
Magnetic Variation 0.739° W

METAR

VTUO 180400Z 04017KT 9000 NSC 21/12 Q1022 A3020 INFO E RWY 04

Decode

TAF

TAF VTUO 172300Z 1800/1824 06008KT 6000 FEW025 BECMG 1801/1803 04012KT 9000 TEMPO 1803/1808 04012G24KT

Decode

Departure Runways

ID Width Length Bearing (true) Bearing (mag) Surface Threshold Offset Overrun Length
04 148 ft / 45 m 6,930 ft / 2,112 m 34.94° 35.68° Asphalt 0 ft / 0 m 1,726 ft / 526 m
22 148 ft / 45 m 6,930 ft / 2,112 m 214.94° 215.68° Asphalt 0 ft / 0 m 1,704 ft / 519 m

VTUQ

Details ICAO VTUQ (NAK)
Name Nakhon Ratchasima
Region Thailand
Timezone Asia/Bangkok (UTC+7.0)
Stats Elevation 765 ft / 233 m (AMSL)
Location 14.949496° 102.312737°
Runways 1
Magnetic Variation 0.681° W

METAR

VTUQ 180500Z 04014KT 350V080 9999 FEW025 23/11 Q1021 A3016

Decode

TAF

TAF VTUQ 172300Z 1800/1824 06008KT 9000 FEW025 BECMG 1801/1803 06013KT 9000 TEMPO 1803/1808 06013G25KT

Decode

Destination Runways

ID Width Length Bearing (true) Bearing (mag) Surface Threshold Offset Overrun Length
06 148 ft / 45 m 6,896 ft / 2,102 m 61.18° 61.86° Asphalt 0 ft / 0 m 197 ft / 60 m
24 148 ft / 45 m 6,896 ft / 2,102 m 241.19° 241.87° Asphalt 0 ft / 0 m 197 ft / 60 m

Approach Navaids

Runway Type Ident Frequency Range Bearing (true) Bearing (mag) Slope Elevation
06 Localiser INKR 109.70 MHz 18 nm / 33 km 61.19° 61.87° - 732 ft / 223 m (AMSL)
06 Glidescope INKR 109.70 MHz 10 nm / 19 km 61.19° 61.87° 3.00° 765 ft / 233 m (AMSL)
06 DME INKR 109.70 MHz 18 nm / 33 km - - - 732 ft / 223 m (AMSL)

Popular Alternatives